Time;durP1;ratioP1;P1;durP2;ratioP2;P2;SDS_P1;SDS_P2;PMS_P1;PMS_P2;Temp;Humidity;BMP_temperature;BMP_pressure;BME280_temperature;BME280_humidity;BME280_pressure;Samples;Min_cycle;Max_cycle;Signal;HPM_P1;HPM_P2
2021/05/23 00:00:30;;;;;;;18.37;15.10;;;;;;;7.80;79.94;98594.16;125607;1101;64210;-86
2021/05/23 00:03:18;;;;;;;16.47;14.20;;;;;;;7.72;80.06;98598.24;125649;1101;64379;-86
2021/05/23 00:05:47;;;;;;;15.75;14.00;;;;;;;7.65;80.08;98598.59;125624;1101;64246;-87
2021/05/23 00:08:20;;;;;;;16.23;13.27;;;;;;;7.58;80.04;98601.71;125644;1101;64300;-87
2021/05/23 00:11:00;;;;;;;15.73;13.27;;;;;;;7.54;80.13;98600.21;125521;1101;64329;-88
2021/05/23 00:13:32;;;;;;;17.23;15.23;;;;;;;7.52;80.40;98605.59;125363;1096;64323;-87
2021/05/23 00:16:06;;;;;;;20.37;16.63;;;;;;;7.52;80.50;98602.09;125211;1101;64355;-91
2021/05/23 00:18:40;;;;;;;23.80;21.30;;;;;;;7.52;80.82;98610.05;125854;1101;64940;-88
2021/05/23 00:21:10;;;;;;;18.97;16.97;;;;;;;7.52;80.83;98613.55;125413;1096;64207;-88
2021/05/23 00:23:38;;;;;;;44.80;30.50;;;;;;;7.53;80.64;98614.39;124907;1096;64399;-87
2021/05/23 00:26:05;;;;;;;37.87;25.93;;;;;;;7.50;80.82;98614.59;124716;1101;64422;-87
2021/05/23 00:28:35;;;;;;;25.27;20.67;;;;;;;7.46;80.78;98614.78;124835;1101;64454;-86
2021/05/23 00:31:04;;;;;;;23.65;20.40;;;;;;;7.51;81.16;98603.05;124755;1096;64383;-87
2021/05/23 00:33:32;;;;;;;28.53;21.07;;;;;;;7.59;81.20;98600.79;124898;1096;64411;-87
2021/05/23 00:36:00;;;;;;;22.10;19.23;;;;;;;7.61;81.34;98606.83;124924;1101;64327;-86
2021/05/23 00:38:27;;;;;;;21.50;18.03;;;;;;;7.62;81.19;98596.14;124982;1101;64326;-86
2021/05/23 00:40:54;;;;;;;21.83;18.93;;;;;;;7.62;81.25;98598.79;124762;1101;64917;-86
2021/05/23 00:43:21;;;;;;;30.40;18.23;;;;;;;7.57;80.85;98598.22;124985;1101;64415;-87
2021/05/23 00:45:50;;;;;;;22.00;18.00;;;;;;;7.53;80.91;98599.37;124914;1096;64323;-86
2021/05/23 00:48:20;;;;;;;21.37;18.63;;;;;;;7.47;80.88;98603.22;124953;1101;64438;-87
2021/05/23 00:50:48;;;;;;;23.43;20.08;;;;;;;;;;124966;1096;64253;-87
2021/05/23 00:53:17;;;;;;;23.73;19.90;;;;;;;7.36;80.94;98603.02;124937;1101;64329;-88
2021/05/23 00:55:44;;;;;;;21.70;19.33;;;;;;;7.34;81.18;98594.30;124995;1096;64884;-87
2021/05/23 00:58:12;;;;;;;23.63;21.10;;;;;;;7.28;81.22;98597.33;124891;1096;64298;-88
2021/05/23 01:00:39;;;;;;;21.03;17.97;;;;;;;7.21;81.08;98593.33;124906;1096;64333;-87
2021/05/23 01:03:28;;;;;;;18.03;16.07;;;;;;;7.14;81.09;98592.86;124941;1101;64323;-88
2021/05/23 01:06:09;;;;;;;20.97;18.50;;;;;;;7.10;81.24;98593.13;125036;1096;64327;-87
2021/05/23 01:08:38;;;;;;;18.73;15.30;;;;;;;7.01;81.12;98599.83;124931;1101;64403;-87
2021/05/23 01:11:06;;;;;;;20.27;15.97;;;;;;;6.96;80.68;98592.14;124931;1101;64303;-88
2021/05/23 01:13:55;;;;;;;19.90;16.63;;;;;;;6.96;81.13;98589.49;125060;1101;64333;-87
2021/05/23 01:16:32;;;;;;;20.60;18.40;;;;;;;6.93;81.23;98599.42;125072;1096;64257;-88
2021/05/23 01:19:27;;;;;;;20.33;17.20;;;;;;;6.90;80.92;98596.92;125080;1101;64331;-88
2021/05/23 01:22:05;;;;;;;19.90;16.10;;;;;;;6.81;80.95;98598.33;125114;1101;64467;-88
2021/05/23 01:24:40;;;;;;;20.33;17.90;;;;;;;6.76;81.23;98601.23;125243;1096;64347;-87
2021/05/23 01:27:12;;;;;;;21.40;18.33;;;;;;;6.69;81.21;98599.91;125093;1102;64361;-87
2021/05/23 01:29:40;;;;;;;19.10;17.10;;;;;;;6.66;81.48;98601.85;125340;1101;64333;-87
2021/05/23 01:32:08;;;;;;;18.97;15.90;;;;;;;6.64;81.47;98606.41;125386;1101;64514;-87
2021/05/23 01:34:36;;;;;;;17.90;15.80;;;;;;;6.63;81.52;98602.88;125532;1101;64295;-87
2021/05/23 01:37:11;;;;;;;17.77;15.80;;;;;;;6.59;81.45;98604.86;125590;1101;64779;-87
2021/05/23 01:39:38;;;;;;;18.67;15.63;;;;;;;6.59;81.43;98598.72;125493;1101;64329;-88
2021/05/23 01:42:06;;;;;;;18.20;15.47;;;;;;;6.60;81.33;98605.70;125642;1096;64243;-87
2021/05/23 01:44:34;;;;;;;19.30;15.27;;;;;;;6.54;81.30;98596.33;125698;1101;64537;-87
2021/05/23 01:47:01;;;;;;;20.10;16.67;;;;;;;6.51;81.36;98601.80;125716;1096;64337;-87
2021/05/23 01:49:29;;;;;;;21.37;19.17;;;;;;;6.49;81.24;98602.83;125643;1101;64246;-88
2021/05/23 01:51:56;;;;;;;21.13;18.83;;;;;;;6.45;81.69;98610.09;125524;1101;64352;-88
2021/05/23 01:54:24;;;;;;;23.30;19.97;;;;;;;6.46;81.85;98609.14;125551;1096;64796;-88
2021/05/23 01:56:51;;;;;;;22.73;19.33;;;;;;;6.46;81.94;98611.79;125446;1101;64805;-87
2021/05/23 01:59:18;;;;;;;22.03;19.70;;;;;;;6.50;81.96;98620.41;125495;1101;64431;-88
2021/05/23 02:01:46;;;;;;;20.33;18.13;;;;;;;6.51;82.20;98617.68;125287;1096;64330;-86
2021/05/23 02:04:13;;;;;;;24.07;18.07;;;;;;;6.53;82.02;98614.93;125290;1101;64362;-88
2021/05/23 02:06:41;;;;;;;20.90;17.93;;;;;;;6.52;82.05;98618.53;125192;1095;64323;-88
2021/05/23 02:09:08;;;;;;;21.17;17.67;;;;;;;6.53;82.09;98609.63;125087;1096;64373;-88
2021/05/23 02:11:36;;;;;;;24.85;18.05;;;;;;;6.53;82.00;98609.63;124929;1096;64355;-87
2021/05/23 02:14:03;;;;;;;20.70;18.37;;;;;;;6.53;82.07;98606.98;124803;1096;64332;-88
2021/05/23 02:16:33;;;;;;;20.67;17.13;;;;;;;6.50;82.12;98610.70;124916;1101;64374;-87
2021/05/23 02:19:01;;;;;;;21.77;18.17;;;;;;;6.52;82.18;98615.88;124858;1095;64326;-88
2021/05/23 02:21:29;;;;;;;18.40;15.37;;;;;;;6.49;82.10;98610.77;124875;1101;64345;-87
2021/05/23 02:23:57;;;;;;;20.50;16.77;;;;;;;6.47;82.06;98613.48;124893;1101;64454;-88
2021/05/23 02:26:24;;;;;;;21.77;17.70;;;;;;;6.49;82.16;98608.12;124891;1101;64326;-87
2021/05/23 02:28:53;;;;;;;20.05;18.00;;;;;;;6.49;81.84;98624.00;124982;1095;64336;-88
2021/05/23 02:31:21;;;;;;;19.33;17.23;;;;;;;6.42;81.82;98622.63;125068;1096;64249;-87
2021/05/23 02:33:48;;;;;;;20.47;17.23;;;;;;;6.35;81.79;98622.98;124639;1096;64470;-87
2021/05/23 02:36:15;;;;;;;20.90;18.20;;;;;;;6.32;82.07;98617.87;124832;1101;64374;-86
2021/05/23 02:38:42;;;;;;;21.07;17.90;;;;;;;6.30;82.04;98627.67;124856;1101;64317;-88
2021/05/23 02:41:10;;;;;;;20.70;18.47;;;;;;;6.32;82.27;98625.80;124894;1096;64269;-88
2021/05/23 02:43:37;;;;;;;23.80;21.20;;;;;;;6.37;82.12;98641.41;124893;1096;64386;-88
2021/05/23 02:46:04;;;;;;;25.17;21.63;;;;;;;6.44;82.86;98640.13;124876;1096;64390;-88
2021/05/23 02:48:32;;;;;;;23.37;19.87;;;;;;;6.52;82.72;98650.30;124734;1096;64728;-87
2021/05/23 02:51:02;;;;;;;25.27;21.63;;;;;;;6.62;82.83;98643.55;124869;1096;64358;-87
2021/05/23 02:53:30;;;;;;;26.10;22.27;;;;;;;6.74;83.05;98653.45;124929;1101;64243;-88
2021/05/23 02:55:58;;;;;;;33.77;26.17;;;;;;;6.87;82.95;98644.79;124914;1101;64239;-88
2021/05/23 02:58:26;;;;;;;42.00;32.85;;;;;;;6.99;83.15;98647.59;124900;1101;64408;-87
2021/05/23 03:00:53;;;;;;;35.90;29.87;;;;;;;7.14;82.99;98647.66;124884;1096;64355;-87
2021/05/23 03:03:20;;;;;;;24.73;22.10;;;;;;;7.32;83.15;98638.63;124598;1095;64409;-88
2021/05/23 03:05:48;;;;;;;30.67;25.40;;;;;;;7.43;82.77;98641.48;124974;1096;64319;-88
2021/05/23 03:08:16;;;;;;;32.60;25.83;;;;;;;7.48;82.43;98638.56;124857;1095;64333;-88
2021/05/23 03:10:49;;;;;;;31.93;25.40;;;;;;;7.55;82.25;98645.18;124678;1102;64465;-88
2021/05/23 03:13:17;;;;;;;32.77;26.93;;;;;;;7.63;82.00;98644.72;124909;1101;64408;-87
2021/05/23 03:15:44;;;;;;;28.95;25.85;;;;;;;7.75;81.93;98641.33;124859;1101;64361;-87
2021/05/23 03:18:12;;;;;;;28.20;25.15;;;;;;;8.16;81.48;98637.90;124755;1101;64303;-87
2021/05/23 03:20:42;;;;;;;25.83;22.87;;;;;;;8.60;80.95;98628.09;124870;1101;64416;-88
2021/05/23 03:23:10;;;;;;;23.87;21.33;;;;;;;8.96;80.29;98627.50;124907;1096;64392;-87
2021/05/23 03:25:38;;;;;;;22.93;20.47;;;;;;;9.47;79.84;98624.09;124939;1101;64342;-87
2021/05/23 03:28:06;;;;;;;21.37;19.20;;;;;;;10.25;78.51;98624.80;124905;1095;64415;-87
2021/05/23 03:30:41;;;;;;;21.97;19.87;;;;;;;11.15;77.10;98619.15;124880;1101;64390;-87
2021/05/23 03:33:10;;;;;;;23.07;20.53;;;;;;;11.80;76.12;98621.26;124953;1096;64275;-87
2021/05/23 03:35:38;;;;;;;20.63;18.70;;;;;;;12.63;74.72;98616.50;124854;1101;64409;-87
2021/05/23 03:38:07;;;;;;;22.23;20.03;;;;;;;13.44;73.29;98615.13;124732;1101;64463;-87
2021/05/23 03:40:37;;;;;;;22.43;20.30;;;;;;;14.25;71.81;98609.94;124858;1101;64332;-87
2021/05/23 03:43:05;;;;;;;22.47;20.17;;;;;;;14.97;70.59;98608.85;124913;1096;64361;-87
2021/05/23 03:45:33;;;;;;;22.40;20.20;;;;;;;15.18;69.61;98607.88;124959;1096;64370;-87
2021/05/23 03:48:01;;;;;;;21.43;19.33;;;;;;;15.53;68.59;98607.27;124926;1101;64467;-87
2021/05/23 03:50:28;;;;;;;16.23;14.53;;;;;;;15.88;69.24;98603.16;124898;1101;64413;-87
2021/05/23 03:52:58;;;;;;;17.67;15.90;;;;;;;15.58;68.65;98608.53;124701;1101;64309;-87
2021/05/23 03:55:27;;;;;;;18.95;17.00;;;;;;;15.41;68.40;98616.50;124731;1096;64243;-87
2021/05/23 03:57:57;;;;;;;17.18;15.58;;;;;;;15.14;67.99;98607.33;124986;1101;64242;-86
2021/05/23 04:00:26;;;;;;;17.75;15.98;;;;;;;14.66;68.42;98614.30;124942;1101;64355;-86
2021/05/23 04:02:56;;;;;;;16.77;14.97;;;;;;;14.48;69.11;98611.43;124942;1101;64319;-87
2021/05/23 04:05:25;;;;;;;15.25;13.70;;;;;;;14.51;69.13;98612.98;124914;1101;64339;-87
2021/05/23 04:07:53;;;;;;;16.23;14.53;;;;;;;14.03;69.47;98609.15;124905;1101;64323;-87
2021/05/23 04:10:25;;;;;;;14.33;12.90;;;;;;;13.76;69.78;98617.73;124957;1101;64348;-87
2021/05/23 04:12:53;;;;;;;13.77;12.30;;;;;;;13.75;69.78;98612.52;124880;1096;64400;-86
2021/05/23 04:18:46;;;;;;;11.83;10.67;;;;;;;14.82;68.56;98600.35;124908;1096;64422;-87
2021/05/23 04:21:14;;;;;;;12.40;10.67;;;;;;;15.20;68.08;98600.54;124882;1095;64772;-87
2021/05/23 04:23:41;;;;;;;15.83;11.37;;;;;;;15.83;66.87;98598.21;124918;1101;64323;-87
2021/05/23 04:26:09;;;;;;;12.30;11.20;;;;;;;15.30;67.43;98612.13;124840;1096;64366;-87
2021/05/23 04:28:36;;;;;;;13.45;11.65;;;;;;;15.20;67.82;98616.64;124877;1101;64477;-87
2021/05/23 04:31:03;;;;;;;12.17;10.80;;;;;;;15.99;66.47;98608.34;124959;1096;64414;-86
2021/05/23 04:33:31;;;;;;;12.60;10.90;;;;;;;16.06;65.85;98606.78;124898;1095;64246;-86
2021/05/23 04:35:58;;;;;;;11.77;10.77;;;;;;;16.79;64.52;98601.45;124866;1101;64386;-87
2021/05/23 04:38:25;;;;;;;13.87;12.47;;;;;;;16.94;64.59;98614.41;124891;1101;64467;-87
2021/05/23 04:40:53;;;;;;;15.63;11.97;;;;;;;17.54;64.18;98607.38;124872;1096;64335;-87
2021/05/23 04:43:20;;;;;;;13.87;12.33;;;;;;;17.99;63.44;98606.38;124872;1096;64412;-87
2021/05/23 04:45:47;;;;;;;12.75;11.45;;;;;;;17.79;63.75;98610.27;124932;1102;64265;-87
2021/05/23 04:48:16;;;;;;;13.53;12.23;;;;;;;18.22;62.78;98613.92;124868;1096;64243;-87
2021/05/23 04:50:43;;;;;;;13.07;11.67;;;;;;;18.31;62.50;98604.85;124902;1101;64373;-86
2021/05/23 04:53:10;;;;;;;12.13;10.83;;;;;;;18.73;62.22;98611.26;124953;1101;64409;-86
2021/05/23 04:55:38;;;;;;;11.83;10.50;;;;;;;18.70;61.47;98606.20;124854;1101;64243;-86
2021/05/23 04:58:05;;;;;;;14.37;11.53;;;;;;;18.33;61.64;98608.23;124935;1096;64365;-86
2021/05/23 05:00:32;;;;;;;11.25;9.50;;;;;;;18.33;61.27;98613.64;124909;1101;64278;-87
2021/05/23 05:03:00;;;;;;;10.17;9.13;;;;;;;18.18;60.88;98613.38;124882;1101;64348;-87
2021/05/23 05:05:27;;;;;;;10.33;9.33;;;;;;;18.56;60.99;98613.04;124918;1101;64365;-87
2021/05/23 05:07:55;;;;;;;10.37;9.27;;;;;;;18.61;60.84;98613.39;124964;1096;64354;-87
2021/05/23 05:10:22;;;;;;;9.80;8.70;;;;;;;19.13;59.35;98612.39;124903;1095;64336;-86
2021/05/23 05:12:49;;;;;;;10.63;9.27;;;;;;;19.10;58.98;98621.67;124861;1101;64360;-86
2021/05/23 05:15:17;;;;;;;8.30;7.50;;;;;;;19.58;57.68;98625.42;124902;1096;64486;-86
2021/05/23 05:17:44;;;;;;;8.70;7.90;;;;;;;19.73;57.02;98614.80;124815;1101;64393;-87
2021/05/23 05:20:12;;;;;;;7.70;6.93;;;;;;;19.37;58.34;98612.41;124881;1096;64367;-86
2021/05/23 05:22:39;;;;;;;7.40;6.70;;;;;;;19.62;58.38;98612.42;124886;1096;64312;-87
2021/05/23 05:25:07;;;;;;;7.90;6.97;;;;;;;20.20;57.44;98608.64;124940;1101;64312;-87
2021/05/23 05:27:35;;;;;;;8.20;7.23;;;;;;;20.50;56.85;98608.86;124896;1101;64351;-87
2021/05/23 05:30:04;;;;;;;8.30;7.50;;;;;;;20.18;57.37;98608.80;125013;1101;64259;-86
2021/05/23 05:32:32;;;;;;;8.00;7.27;;;;;;;20.40;56.72;98609.06;124897;1096;64329;-88
2021/05/23 05:34:59;;;;;;;7.75;6.95;;;;;;;20.70;55.96;98612.03;124899;1096;64329;-88
2021/05/23 05:37:26;;;;;;;7.43;6.83;;;;;;;21.10;55.69;98597.39;124851;1096;64323;-87
2021/05/23 05:39:58;;;;;;;6.53;5.80;;;;;;;21.33;55.10;98610.96;124918;1096;64338;-88
2021/05/23 05:42:25;;;;;;;8.17;6.37;;;;;;;21.30;54.90;98611.33;124695;1101;64509;-87
2021/05/23 05:44:52;;;;;;;6.13;5.53;;;;;;;21.39;54.93;98604.00;124811;1095;64374;-87
2021/05/23 05:47:19;;;;;;;6.13;5.53;;;;;;;21.72;53.79;98601.83;124911;1096;64297;-88
2021/05/23 05:49:47;;;;;;;7.80;6.10;;;;;;;21.91;53.74;98609.47;124899;1096;64326;-86
2021/05/23 05:52:14;;;;;;;6.33;5.80;;;;;;;22.29;53.07;98611.30;124839;1101;64320;-87
2021/05/23 05:54:42;;;;;;;5.87;4.93;;;;;;;22.47;53.01;98611.77;124886;1096;64403;-86
2021/05/23 05:57:09;;;;;;;5.20;4.70;;;;;;;22.61;52.61;98607.34;124883;1101;64412;-86
2021/05/23 05:59:36;;;;;;;4.43;4.03;;;;;;;22.59;52.70;98609.39;124892;1096;64339;-87
2021/05/23 06:02:05;;;;;;;4.07;3.70;;;;;;;22.85;51.59;98610.77;124638;1096;64249;-87
2021/05/23 06:04:33;;;;;;;6.23;3.70;;;;;;;22.82;51.54;98608.44;124871;1101;64628;-87
2021/05/23 06:07:01;;;;;;;3.80;2.77;;;;;;;23.29;51.52;98604.39;124897;1101;64509;-87
2021/05/23 06:09:28;;;;;;;5.67;3.37;;;;;;;23.63;50.74;98611.83;124829;1101;64272;-87
2021/05/23 06:11:55;;;;;;;3.27;2.87;;;;;;;23.90;50.65;98603.91;124895;1101;64304;-87
2021/05/23 06:14:22;;;;;;;3.00;2.67;;;;;;;24.12;49.51;98602.83;124885;1101;64326;-87
2021/05/23 06:16:49;;;;;;;2.63;2.30;;;;;;;23.89;49.49;98611.23;124876;1096;64419;-87
2021/05/23 06:19:17;;;;;;;2.50;2.30;;;;;;;23.79;49.72;98610.73;124858;1101;64431;-87
2021/05/23 06:21:44;;;;;;;3.70;1.93;;;;;;;23.89;49.36;98605.80;124885;1096;64342;-88
2021/05/23 06:24:11;;;;;;;2.27;1.90;;;;;;;23.91;49.19;98609.17;125020;1101;64335;-86
2021/05/23 06:26:39;;;;;;;2.90;1.67;;;;;;;23.96;48.78;98606.70;124969;1096;64342;-87
2021/05/23 06:29:06;;;;;;;3.05;1.60;;;;;;;24.09;48.08;98616.81;124881;1101;64300;-87
2021/05/23 06:31:33;;;;;;;2.60;1.90;;;;;;;24.12;48.02;98613.72;124879;1102;64377;-86
2021/05/23 06:34:01;;;;;;;1.63;1.10;;;;;;;23.98;46.35;98610.03;124946;1101;64332;-87
2021/05/23 06:36:28;;;;;;;1.50;1.00;;;;;;;23.83;46.73;98622.92;124990;1101;64320;-87
2021/05/23 06:38:55;;;;;;;2.90;1.70;;;;;;;23.91;46.92;98614.61;124881;1101;64358;-87
2021/05/23 06:41:22;;;;;;;1.93;1.30;;;;;;;23.96;47.07;98614.86;124876;1095;64336;-87
2021/05/23 06:43:50;;;;;;;2.20;1.33;;;;;;;23.92;46.60;98610.84;124920;1101;64405;-87
2021/05/23 06:46:17;;;;;;;2.07;1.60;;;;;;;23.83;46.67;98612.88;124836;1101;64281;-87
2021/05/23 06:48:46;;;;;;;2.60;1.30;;;;;;;23.93;46.74;98606.23;124904;1096;64285;-87
2021/05/23 06:51:13;;;;;;;2.60;2.00;;;;;;;24.09;46.45;98620.40;124895;1101;64258;-87
2021/05/23 06:53:41;;;;;;;1.83;1.50;;;;;;;24.39;45.48;98617.44;124925;1101;63565;-87
2021/05/23 06:56:09;;;;;;;4.50;1.37;;;;;;;24.51;44.92;98624.05;124889;1101;64477;-88
2021/05/23 06:58:36;;;;;;;3.20;1.53;;;;;;;24.60;44.91;98610.25;124824;1095;64333;-87
2021/05/23 07:01:04;;;;;;;2.90;1.63;;;;;;;24.69;44.60;98622.64;124960;1096;64207;-88
2021/05/23 07:03:31;;;;;;;1.60;1.40;;;;;;;24.68;44.20;98621.81;124990;1096;64414;-87
2021/05/23 07:05:59;;;;;;;1.63;1.53;;;;;;;24.50;43.91;98621.51;124900;1101;64505;-87
2021/05/23 07:08:26;;;;;;;2.25;1.50;;;;;;;24.51;43.68;98612.28;124838;1101;64329;-88
2021/05/23 07:10:53;;;;;;;2.90;1.73;;;;;;;24.52;43.60;98622.99;124898;1101;64354;-86
2021/05/23 07:13:23;;;;;;;3.33;1.73;;;;;;;24.46;43.30;98614.77;124894;1096;64438;-87
2021/05/23 07:15:51;;;;;;;4.07;2.27;;;;;;;24.33;43.38;98612.80;124971;1101;64425;-87
2021/05/23 07:18:19;;;;;;;3.53;2.50;;;;;;;24.22;43.35;98613.34;124895;1096;64430;-88
2021/05/23 07:20:46;;;;;;;2.60;2.40;;;;;;;23.99;43.25;98619.91;124922;1101;64476;-87
2021/05/23 07:23:14;;;;;;;2.43;2.00;;;;;;;23.62;41.86;98612.88;124875;1096;64353;-87
2021/05/23 07:25:42;;;;;;;3.00;2.37;;;;;;;23.11;42.83;98627.41;124926;1101;64443;-87
2021/05/23 07:28:09;;;;;;;2.63;2.23;;;;;;;22.87;43.82;98625.02;125129;1096;64680;-86
2021/05/23 07:30:37;;;;;;;3.67;2.47;;;;;;;22.72;42.75;98625.90;124872;1096;64390;-87
2021/05/23 07:33:04;;;;;;;4.50;2.57;;;;;;;22.43;44.35;98628.61;124894;1096;64409;-87
2021/05/23 07:35:31;;;;;;;2.80;1.87;;;;;;;22.39;44.27;98630.03;124983;1101;64336;-87
2021/05/23 07:37:58;;;;;;;3.53;2.20;;;;;;;22.43;44.55;98631.33;124918;1101;64229;-87
2021/05/23 07:40:26;;;;;;;3.50;2.53;;;;;;;22.55;45.32;98627.12;124970;1096;64393;-87
2021/05/23 07:42:53;;;;;;;3.75;2.50;;;;;;;22.63;45.13;98628.89;124953;1095;64307;-87
2021/05/23 07:45:20;;;;;;;3.80;1.90;;;;;;;22.71;45.14;98629.63;124855;1095;64326;-87
2021/05/23 07:47:48;;;;;;;2.07;1.50;;;;;;;22.73;44.88;98624.02;124991;1096;64329;-87
2021/05/23 07:50:15;;;;;;;1.60;1.20;;;;;;;22.62;43.07;98628.06;125001;1101;64338;-87
2021/05/23 07:52:43;;;;;;;3.23;1.60;;;;;;;22.46;43.78;98620.95;125174;1101;64325;-87
2021/05/23 07:55:11;;;;;;;2.95;1.30;;;;;;;22.42;43.13;98616.91;125118;1095;64358;-86
2021/05/23 07:57:38;;;;;;;2.20;1.23;;;;;;;22.35;44.05;98626.83;125078;1096;64393;-86
2021/05/23 08:00:08;;;;;;;1.70;1.37;;;;;;;22.36;43.95;98625.82;125031;1101;64358;-87
2021/05/23 08:02:35;;;;;;;3.10;1.43;;;;;;;22.33;44.24;98631.63;125100;1096;64352;-87
2021/05/23 08:05:05;;;;;;;2.00;1.40;;;;;;;22.27;43.47;98627.77;124719;1096;64339;-87
2021/05/23 08:07:32;;;;;;;2.28;1.23;;;;;;;22.28;43.29;98631.34;124975;1101;64322;-87
2021/05/23 08:10:00;;;;;;;2.90;1.00;;;;;;;22.37;43.63;98627.49;124960;1101;64395;-87
2021/05/23 08:12:27;;;;;;;2.63;1.23;;;;;;;22.41;43.21;98625.23;125079;1101;64249;-87
2021/05/23 08:14:54;;;;;;;1.70;1.47;;;;;;;22.49;43.05;98620.57;125102;1101;64786;-87
2021/05/23 08:17:21;;;;;;;1.20;0.90;;;;;;;22.67;42.78;98620.19;124752;1096;64321;-87
2021/05/23 08:19:49;;;;;;;2.40;0.80;;;;;;;22.77;42.70;98625.30;124812;1096;64770;-86
2021/05/23 08:22:16;;;;;;;1.00;0.70;;;;;;;22.69;41.22;98628.13;124918;1101;64405;-86
2021/05/23 08:24:43;;;;;;;1.00;0.80;;;;;;;22.67;41.04;98632.90;124903;1096;64346;-86
2021/05/23 08:27:11;;;;;;;1.23;0.70;;;;;;;22.54;40.26;98622.73;125236;1101;64345;-87
2021/05/23 08:29:38;;;;;;;2.10;0.87;;;;;;;22.52;39.92;98622.07;125299;1096;64336;-87
2021/05/23 08:32:06;;;;;;;2.40;1.10;;;;;;;22.65;41.12;98637.70;125173;1101;64246;-86
2021/05/23 08:34:33;;;;;;;1.50;1.00;;;;;;;22.79;40.34;98628.68;125044;1101;64437;-87
2021/05/23 08:37:01;;;;;;;1.80;0.70;;;;;;;22.76;40.05;98631.78;125067;1102;64412;-86
2021/05/23 08:39:30;;;;;;;1.03;0.70;;;;;;;22.64;39.09;98630.56;125317;1096;64361;-87
2021/05/23 08:41:57;;;;;;;1.10;0.63;;;;;;;22.60;39.33;98626.56;125317;1096;64400;-86
2021/05/23 08:44:25;;;;;;;1.40;0.73;;;;;;;22.45;38.52;98631.98;125300;1101;64368;-87
2021/05/23 08:46:53;;;;;;;1.37;0.90;;;;;;;22.39;40.05;98636.30;125265;1101;64371;-87
2021/05/23 08:49:23;;;;;;;2.17;1.10;;;;;;;22.44;39.29;98642.02;125108;1101;64336;-87
2021/05/23 08:51:52;;;;;;;1.43;1.03;;;;;;;22.39;38.81;98640.89;125121;1101;64328;-87
2021/05/23 08:54:19;;;;;;;3.70;0.75;;;;;;;22.31;39.15;98641.83;125035;1101;64410;-86
2021/05/23 08:56:50;;;;;;;1.63;1.07;;;;;;;22.41;39.25;98644.24;125255;1101;64330;-94
2021/05/23 09:12:19;;;;;;;1.57;0.80;;;;;;;21.86;39.40;98649.88;111321;1090;64476;-82
2021/05/23 09:14:52;;;;;;;2.10;0.70;;;;;;;21.75;39.54;98644.02;124613;1104;64323;-82
2021/05/23 09:17:23;;;;;;;1.57;0.90;;;;;;;21.64;40.08;98642.59;124538;1097;64349;-83
2021/05/23 09:19:52;;;;;;;2.20;0.80;;;;;;;21.57;40.40;98644.37;124664;1097;64521;-83
2021/05/23 09:22:23;;;;;;;1.77;0.67;;;;;;;21.59;40.64;98645.88;124649;1097;64475;-82
2021/05/23 09:24:55;;;;;;;1.30;0.80;;;;;;;21.70;40.75;98653.56;124613;1104;64334;-83
2021/05/23 09:27:28;;;;;;;0.93;0.67;;;;;;;21.79;40.69;98654.33;124623;1104;64335;-82
2021/05/23 09:30:06;;;;;;;2.10;0.90;;;;;;;21.88;40.72;98652.38;124721;1104;64332;-82
2021/05/23 09:32:44;;;;;;;1.87;0.80;;;;;;;22.01;40.57;98657.19;124653;1097;64364;-83
2021/05/23 09:35:12;;;;;;;0.53;0.50;;;;;;;21.96;40.56;98654.18;124838;1104;64358;-82
2021/05/23 09:37:41;;;;;;;2.20;0.80;;;;;;;22.03;41.13;98652.42;124757;1097;64467;-82
2021/05/23 09:40:14;;;;;;;1.80;1.10;;;;;;;21.97;39.94;98650.45;124781;1097;64329;-83
2021/05/23 09:42:47;;;;;;;1.87;1.10;;;;;;;21.70;38.83;98658.99;124859;1097;64326;-82
2021/05/23 09:45:16;;;;;;;2.10;0.80;;;;;;;21.51;39.47;98658.63;124827;1097;64335;-82
2021/05/23 09:47:50;;;;;;;2.73;0.93;;;;;;;21.34;39.47;98656.00;124706;1104;64371;-83
2021/05/23 09:50:37;;;;;;;2.80;1.10;;;;;;;21.35;39.72;98659.55;125104;1104;64339;-83
2021/05/23 09:53:34;;;;;;;1.00;0.70;;;;;;;21.23;39.74;98669.98;125064;1104;64406;-83
2021/05/23 09:56:09;;;;;;;2.33;0.90;;;;;;;21.13;40.41;98658.52;125262;1104;64246;-82
2021/05/23 09:58:38;;;;;;;3.60;1.30;;;;;;;21.09;40.53;98658.05;125200;1097;64291;-82
2021/05/23 10:01:23;;;;;;;3.83;1.23;;;;;;;21.10;41.35;98665.14;125129;1104;64327;-82
2021/05/23 10:03:53;;;;;;;1.20;1.10;;;;;;;21.24;41.36;98663.52;125206;1104;64470;-83
2021/05/23 10:06:27;;;;;;;;;;;;;;;21.31;41.76;98669.92;125054;1104;64323;-83
2021/05/23 10:08:56;;;;;;;1.33;0.90;;;;;;;21.43;41.84;98670.38;125151;1104;64323;-83
2021/05/23 10:11:25;;;;;;;3.13;1.10;;;;;;;21.57;42.31;98671.48;125266;1097;64259;-84
2021/05/23 10:13:53;;;;;;;3.28;0.98;;;;;;;21.63;41.35;98673.45;125149;1097;64233;-83
2021/05/23 10:16:21;;;;;;;2.05;1.20;;;;;;;21.61;41.23;98667.37;125276;1104;64515;-83
2021/05/23 10:18:50;;;;;;;2.03;1.10;;;;;;;21.54;41.49;98677.23;125105;1104;64232;-84
2021/05/23 10:21:17;;;;;;;3.40;1.80;;;;;;;21.41;41.78;98677.86;124993;1104;64329;-84
2021/05/23 10:24:04;;;;;;;2.87;1.20;;;;;;;21.39;41.78;98679.91;124944;1104;64255;-85
2021/05/23 10:26:33;;;;;;;2.87;1.33;;;;;;;21.40;41.63;98689.72;125023;1104;64486;-83
2021/05/23 10:29:02;;;;;;;2.73;1.80;;;;;;;21.32;41.40;98689.73;125092;1104;64364;-83
2021/05/23 10:31:33;;;;;;;1.50;1.40;;;;;;;21.13;41.22;98691.88;125135;1104;64303;-83
2021/05/23 10:34:01;;;;;;;1.70;1.50;;;;;;;21.04;42.34;98693.80;125224;1097;64391;-83
2021/05/23 10:36:42;;;;;;;3.83;1.60;;;;;;;20.93;41.94;98694.19;125366;1104;64332;-83
2021/05/23 10:39:12;;;;;;;2.20;1.60;;;;;;;20.94;42.50;98695.88;125520;1097;64416;-83
2021/05/23 10:41:41;;;;;;;4.60;1.70;;;;;;;20.83;42.38;98698.97;125368;1096;64454;-83
2021/05/23 10:44:11;;;;;;;4.37;1.83;;;;;;;20.75;42.85;98701.72;125482;1097;64367;-84
2021/05/23 10:46:50;;;;;;;2.80;2.00;;;;;;;20.63;42.59;98700.40;125375;1104;64336;-81
2021/05/23 10:49:17;;;;;;;3.90;1.77;;;;;;;20.46;42.60;98703.13;125269;1096;64326;-82
2021/05/23 10:51:53;;;;;;;2.50;1.60;;;;;;;20.30;43.39;98703.13;125282;1097;64374;-82
2021/05/23 10:54:20;;;;;;;1.70;1.30;;;;;;;20.36;43.82;98707.88;125309;1104;64394;-82
2021/05/23 10:56:58;;;;;;;2.00;1.40;;;;;;;20.41;43.88;98702.80;125177;1097;65210;-82
2021/05/23 10:59:31;;;;;;;2.33;1.40;;;;;;;20.41;44.07;98718.20;125576;1104;64334;-83
2021/05/23 11:02:00;;;;;;;2.77;1.50;;;;;;;20.41;44.27;98727.16;125322;1104;64335;-83
2021/05/23 11:04:36;;;;;;;2.67;2.10;;;;;;;20.44;45.05;98729.52;125289;1104;64294;-83
2021/05/23 11:07:09;;;;;;;2.40;2.10;;;;;;;20.42;45.54;98725.29;125411;1104;64330;-82
2021/05/23 11:09:37;;;;;;;3.00;1.70;;;;;;;20.26;45.28;98724.30;125156;1104;64365;-82
2021/05/23 11:12:10;;;;;;;2.60;1.40;;;;;;;20.07;46.02;98725.50;125559;1104;64306;-83
2021/05/23 11:14:38;;;;;;;1.57;1.40;;;;;;;19.82;46.45;98737.33;125286;1104;64339;-82
2021/05/23 11:17:09;;;;;;;1.60;1.40;;;;;;;19.60;47.02;98745.05;125447;1104;64403;-82
2021/05/23 11:19:36;;;;;;;1.73;1.20;;;;;;;19.36;47.13;98742.30;125323;1104;64205;-83
2021/05/23 11:22:04;;;;;;;4.87;1.63;;;;;;;19.12;47.78;98754.72;125172;1104;64211;-80
2021/05/23 11:24:34;;;;;;;1.90;1.70;;;;;;;19.02;47.86;98754.00;125387;1104;64355;-81
2021/05/23 11:27:16;;;;;;;3.47;1.63;;;;;;;18.91;48.30;98751.59;125373;1097;64269;-82
2021/05/23 11:29:49;;;;;;;3.67;2.17;;;;;;;18.82;48.83;98761.48;125121;1104;64329;-83
2021/05/23 11:32:17;;;;;;;2.93;2.20;;;;;;;18.84;49.67;98763.02;124956;1097;64661;-83
2021/05/23 11:34:46;;;;;;;4.27;2.00;;;;;;;18.86;50.07;98769.11;124656;1097;64334;-82
2021/05/23 11:37:14;;;;;;;2.37;1.70;;;;;;;18.78;50.09;98769.08;124897;1104;64336;-82
2021/05/23 11:39:42;;;;;;;4.57;1.63;;;;;;;18.61;49.83;98776.18;124812;1097;64326;-83
2021/05/23 11:42:09;;;;;;;3.55;2.00;;;;;;;18.40;49.61;98781.11;124834;1104;64445;-82
2021/05/23 11:44:39;;;;;;;4.50;1.53;;;;;;;18.20;48.08;98786.70;124812;1104;64416;-82
2021/05/23 11:47:07;;;;;;;4.33;1.10;;;;;;;17.84;48.16;98788.57;124890;1104;64253;-83